Vigo Park, Texas
Current Conditions -  °F | °C
As of 4:15 PM on Sunday 23 Nov 2014 (Local Time) from KPVW Reporting Station
Overcast Overcast  
Wind Chill: 33°   Ceiling: 5500
Heat Index: 42°   Visibility: 10mi
Dew Point: 32°   Wind: 18mph
Humidity: 68%   Direction: 340°NNW
Pressure: 29.76"   Gusts: 32mph
Location:  34.5509°N, 101.748°W
Report Text: KPVW 232215Z AUTO 34016G28KT 10SM SCT047 BKN055 OVC080 06/00 A2976 RMK AO2 T00550001
Loading
Personal Weather Stations






























Interactive Weather Map New forecast layout! Learn more

10-Day Weather Forecast

Advertisements
Track Severe Weather on mobile